Time;durP1;ratioP1;P1;durP2;ratioP2;P2;SDS_P1;SDS_P2;PMS_P1;PMS_P2;Temp;Humidity;BMP_temperature;BMP_pressure;BME280_temperature;BME280_humidity;BME280_pressure;Samples;Min_cycle;Max_cycle;Signal;HPM_P1;HPM_P2
2024/01/10 00:00:29;;;;;;;;;;;;;;;-6.77;66.25;103031.31;5067503;28;19921;-71
2024/01/10 00:02:54;;;;;;;;;;;;;;;-6.79;65.83;103038.81;5067996;28;19921;-71
2024/01/10 00:05:20;;;;;;;;;;;;;;;-6.87;65.47;103023.56;5067719;28;19920;-71
2024/01/10 00:07:47;;;;;;;;;;;;;;;-6.89;65.92;103017.44;5019884;28;19924;-71
2024/01/10 00:10:13;;;;;;;;;;;;;;;-6.96;65.83;103023.59;5034442;28;19951;-71
2024/01/10 00:12:38;;;;;;;;;;;;;;;-7.01;66.30;103025.72;5067076;28;20273;-71
2024/01/10 00:15:04;;;;;;;;;;;;;;;-7.05;66.67;103017.59;5067446;28;19947;-70
2024/01/10 00:17:30;;;;;;;;;;;;;;;-7.03;66.40;103017.00;5050749;28;19913;-70
2024/01/10 00:19:55;;;;;;;;;;;;;;;-7.05;66.79;103008.31;5067219;28;19933;-71
2024/01/10 00:22:21;;;;;;;;;;;;;;;-7.05;66.69;103015.97;5016945;28;19928;-70
2024/01/10 00:24:46;;;;;;;;;;;;;;;-7.06;66.59;103014.16;5067211;28;19916;-71
2024/01/10 00:27:11;;;;;;;;;;;;;;;-7.08;66.76;103009.66;5067217;28;19917;-71
2024/01/10 00:29:37;;;;;;;;;;;;;;;-7.03;67.04;103006.81;5067577;28;20027;-71
2024/01/10 00:32:02;;;;;;;;;;;;;;;-7.02;66.54;102998.41;5049375;28;20333;-71
2024/01/10 00:34:27;;;;;;;;;;;;;;;-6.93;66.80;103008.56;5055631;28;20363;-71
2024/01/10 00:36:53;;;;;;;;;;;;;;;-6.91;66.40;103003.63;5057337;28;19921;-71
2024/01/10 00:39:18;;;;;;;;;;;;;;;-6.94;66.65;102993.13;5050052;28;19928;-71
2024/01/10 00:41:43;;;;;;;;;;;;;;;-6.95;66.65;103010.09;5018887;28;20283;-70
2024/01/10 00:44:09;;;;;;;;;;;;;;;-6.82;66.27;102997.75;5069871;28;19932;-70
2024/01/10 00:46:34;;;;;;;;;;;;;;;-6.87;66.07;102998.94;5070868;28;20291;-71
2024/01/10 00:48:59;;;;;;;;;;;;;;;-6.82;66.40;103007.94;5054501;28;20397;-70
2024/01/10 00:51:25;;;;;;;;;;;;;;;-6.88;66.10;103003.91;5070864;28;19921;-71
2024/01/10 00:53:50;;;;;;;;;;;;;;;-6.88;66.69;103002.28;5071283;28;20368;-70
2024/01/10 00:56:16;;;;;;;;;;;;;;;-6.86;67.21;102999.88;5070248;28;20327;-71
2024/01/10 00:58:41;;;;;;;;;;;;;;;-6.91;66.66;102989.25;5070461;28;19925;-70
2024/01/10 01:01:07;;;;;;;;;;;;;;;-6.92;66.04;102994.16;5053820;28;19948;-71
2024/01/10 01:03:32;;;;;;;;;;;;;;;-6.97;67.29;102992.13;5070878;28;19924;-71
2024/01/10 01:05:57;;;;;;;;;;;;;;;-6.97;67.06;102987.03;5070000;28;19975;-71
2024/01/10 01:08:23;;;;;;;;;;;;;;;-6.93;66.84;102997.50;5069846;28;19921;-71
2024/01/10 01:10:48;;;;;;;;;;;;;;;-6.90;67.02;102997.78;5069536;28;19925;-71
2024/01/10 01:13:14;;;;;;;;;;;;;;;-6.91;67.08;102990.88;5021241;28;20265;-71
2024/01/10 01:15:40;;;;;;;;;;;;;;;-6.91;67.36;102995.97;5021073;28;19943;-71
2024/01/10 01:18:05;;;;;;;;;;;;;;;-6.85;66.97;102996.53;5070882;28;20011;-71
2024/01/10 01:20:31;;;;;;;;;;;;;;;-6.94;67.22;102988.03;5069756;28;20031;-71
2024/01/10 01:22:56;;;;;;;;;;;;;;;-6.91;67.45;102996.91;5059019;28;20359;-70
2024/01/10 01:25:21;;;;;;;;;;;;;;;-6.96;67.52;102998.09;5070108;28;19916;-71
2024/01/10 01:27:47;;;;;;;;;;;;;;;-6.97;67.99;102991.19;5070182;28;19921;-70
2024/01/10 01:30:12;;;;;;;;;;;;;;;-6.93;67.10;102998.38;5070252;28;19924;-71
2024/01/10 01:32:38;;;;;;;;;;;;;;;-6.94;67.46;102990.59;5070384;28;19975;-71
2024/01/10 01:35:03;;;;;;;;;;;;;;;-7.00;68.01;102994.34;5054444;28;20358;-71
2024/01/10 01:37:29;;;;;;;;;;;;;;;-7.02;68.35;102994.97;5050510;28;20358;-71
2024/01/10 01:39:54;;;;;;;;;;;;;;;-7.04;67.75;102987.19;5062350;28;20008;-71
2024/01/10 01:42:19;;;;;;;;;;;;;;;-6.97;68.42;102992.13;5044177;28;19925;-70
2024/01/10 01:44:45;;;;;;;;;;;;;;;-7.01;68.17;102989.09;5056847;28;19925;-71
2024/01/10 01:47:10;;;;;;;;;;;;;;;-7.00;67.88;102985.81;5066576;28;20384;-71
2024/01/10 01:49:36;;;;;;;;;;;;;;;-7.03;68.18;102978.78;5051890;28;20019;-70
2024/01/10 01:52:01;;;;;;;;;;;;;;;-7.02;68.37;102983.13;5068992;28;19927;-70
2024/01/10 01:54:27;;;;;;;;;;;;;;;-6.99;68.46;102987.63;5049795;28;19921;-71
2024/01/10 01:56:52;;;;;;;;;;;;;;;-7.01;67.84;102994.22;5052858;28;20019;-71
2024/01/10 01:59:19;;;;;;;;;;;;;;;-7.03;68.19;102980.44;5069171;28;20403;-71
2024/01/10 02:01:44;;;;;;;;;;;;;;;-7.08;69.45;102981.63;5069797;28;19921;-71
2024/01/10 02:04:09;;;;;;;;;;;;;;;-7.04;68.82;102988.81;5053069;28;20030;-71
2024/01/10 02:06:35;;;;;;;;;;;;;;;-7.03;68.80;102981.31;5052818;28;19921;-71
2024/01/10 02:09:00;;;;;;;;;;;;;;;-7.04;68.59;102974.44;5053128;28;19947;-71
2024/01/10 02:11:26;;;;;;;;;;;;;;;-6.99;69.23;102969.78;5069071;28;20388;-70
2024/01/10 02:13:54;;;;;;;;;;;;;;;-7.07;69.16;102969.03;5069692;28;20380;-71
2024/01/10 02:16:20;;;;;;;;;;;;;;;-7.08;68.71;102982.56;5052461;28;20295;-71
2024/01/10 02:18:45;;;;;;;;;;;;;;;-7.06;68.83;102973.38;5052581;28;20023;-71
2024/01/10 02:21:10;;;;;;;;;;;;;;;-7.11;68.62;102960.97;5069443;28;20011;-71
2024/01/10 02:23:36;;;;;;;;;;;;;;;-7.13;68.90;102964.25;5069496;28;20426;-71
2024/01/10 02:26:01;;;;;;;;;;;;;;;-7.09;69.42;102969.69;5067919;28;19948;-70
2024/01/10 02:28:26;;;;;;;;;;;;;;;-7.11;69.48;102974.63;5069542;28;20541;-71
2024/01/10 02:30:52;;;;;;;;;;;;;;;-7.13;69.75;102978.66;5036302;28;19972;-70
2024/01/10 02:33:18;;;;;;;;;;;;;;;-7.06;68.81;102982.69;5036068;28;20375;-70
2024/01/10 02:35:43;;;;;;;;;;;;;;;-7.11;69.36;102976.25;5051732;28;19931;-70
2024/01/10 02:38:08;;;;;;;;;;;;;;;-7.15;69.68;102973.44;5052683;28;19916;-70
2024/01/10 02:40:33;;;;;;;;;;;;;;;-7.11;69.28;102976.25;5068755;28;19925;-71
2024/01/10 02:43:00;;;;;;;;;;;;;;;-7.15;69.64;102970.00;5052085;28;20308;-71
2024/01/10 02:45:25;;;;;;;;;;;;;;;-7.19;69.91;102963.69;5068952;28;19929;-71
2024/01/10 02:47:51;;;;;;;;;;;;;;;-7.14;69.72;102971.75;5068514;28;19978;-71
2024/01/10 02:50:17;;;;;;;;;;;;;;;-7.15;69.43;102964.91;5068950;28;19970;-70
2024/01/10 02:52:42;;;;;;;;;;;;;;;-7.18;70.10;102959.50;5018580;28;19928;-70
2024/01/10 02:55:08;;;;;;;;;;;;;;;-7.22;69.93;102953.22;5061923;28;20070;-70
2024/01/10 02:57:33;;;;;;;;;;;;;;;-7.22;70.63;102952.34;5047413;28;20382;-71
2024/01/10 02:59:58;;;;;;;;;;;;;;;-7.28;70.39;102944.09;5045246;28;19928;-71
2024/01/10 03:02:24;;;;;;;;;;;;;;;-7.27;70.48;102951.00;5063267;28;20280;-70
2024/01/10 03:04:49;;;;;;;;;;;;;;;-7.23;70.69;102945.44;5010174;28;20059;-71
2024/01/10 03:07:17;;;;;;;;;;;;;;;-7.25;70.82;102944.41;5045935;28;20042;-71
2024/01/10 03:09:43;;;;;;;;;;;;;;;-7.28;71.34;102944.09;5052482;28;19925;-71
2024/01/10 03:12:09;;;;;;;;;;;;;;;-7.26;70.99;102945.16;5050574;28;20498;-71
2024/01/10 03:14:34;;;;;;;;;;;;;;;-7.16;70.83;102945.25;5050597;28;19996;-71
2024/01/10 03:17:00;;;;;;;;;;;;;;;-7.27;71.20;102943.34;5039145;28;19932;-71
2024/01/10 03:19:25;;;;;;;;;;;;;;;-7.27;71.17;102936.59;5051214;28;19925;-71
2024/01/10 03:21:51;;;;;;;;;;;;;;;-7.19;71.36;102944.97;5068034;28;19921;-70
2024/01/10 03:24:16;;;;;;;;;;;;;;;-7.20;70.83;102935.53;5062219;28;20015;-70
2024/01/10 03:26:42;;;;;;;;;;;;;;;-7.19;70.64;102934.78;5065444;28;19921;-70
2024/01/10 03:29:07;;;;;;;;;;;;;;;-7.17;70.54;102925.63;5047189;28;19917;-70
2024/01/10 03:31:32;;;;;;;;;;;;;;;-7.19;71.23;102922.03;5061214;28;19933;-71
2024/01/10 03:33:58;;;;;;;;;;;;;;;-7.23;71.27;102922.50;5017758;28;19935;-70
2024/01/10 03:36:24;;;;;;;;;;;;;;;-7.24;71.14;102929.25;5018611;28;19974;-70
2024/01/10 03:38:49;;;;;;;;;;;;;;;-7.25;71.15;102931.66;5067777;28;19924;-71
2024/01/10 03:41:15;;;;;;;;;;;;;;;-7.24;71.39;102933.44;5061611;28;19928;-71
2024/01/10 03:43:41;;;;;;;;;;;;;;;-7.20;71.08;102920.25;5062259;28;19920;-71
2024/01/10 03:46:06;;;;;;;;;;;;;;;-7.20;71.34;102926.22;5025838;28;19924;-70
2024/01/10 03:48:31;;;;;;;;;;;;;;;-7.24;71.14;102918.16;5050311;28;19970;-71
2024/01/10 03:50:57;;;;;;;;;;;;;;;-7.22;71.50;102932.84;5031830;28;19960;-71
2024/01/10 03:53:22;;;;;;;;;;;;;;;-7.25;70.64;102932.56;5060255;28;19924;-71
2024/01/10 03:55:47;;;;;;;;;;;;;;;-7.27;71.68;102926.41;5064677;28;19924;-71
2024/01/10 03:58:13;;;;;;;;;;;;;;;-7.28;72.15;102921.16;5050686;28;19927;-71
2024/01/10 04:00:38;;;;;;;;;;;;;;;-7.18;71.57;102913.66;5050458;28;19927;-71
2024/01/10 04:03:03;;;;;;;;;;;;;;;-7.15;72.68;102903.75;5038303;28;19928;-70
2024/01/10 04:05:29;;;;;;;;;;;;;;;-7.22;72.00;102906.47;5056680;28;19923;-71
2024/01/10 04:07:56;;;;;;;;;;;;;;;-7.19;72.10;102899.09;5040551;28;19971;-71
2024/01/10 04:10:22;;;;;;;;;;;;;;;-7.23;71.87;102900.47;5064960;28;19924;-70
2024/01/10 04:12:47;;;;;;;;;;;;;;;-7.21;71.86;102903.16;5064656;28;20261;-70
2024/01/10 04:15:13;;;;;;;;;;;;;;;-7.22;72.54;102901.38;5021471;28;19917;-70
2024/01/10 04:17:38;;;;;;;;;;;;;;;-7.25;72.21;102898.53;5064737;28;19916;-71
2024/01/10 04:20:04;;;;;;;;;;;;;;;-7.26;72.32;102889.09;5048159;28;19932;-70
2024/01/10 04:22:29;;;;;;;;;;;;;;;-7.27;72.01;102898.38;5048759;28;19962;-71
2024/01/10 04:24:58;;;;;;;;;;;;;;;-7.24;71.93;102888.50;5050081;28;20403;-70
2024/01/10 04:27:24;;;;;;;;;;;;;;;-7.28;71.92;102886.41;5017548;28;20376;-70
2024/01/10 04:29:49;;;;;;;;;;;;;;;-7.24;72.93;102895.22;5017636;28;19921;-71
2024/01/10 04:32:14;;;;;;;;;;;;;;;-7.18;72.59;102889.06;5067342;28;20384;-70
2024/01/10 04:34:40;;;;;;;;;;;;;;;-7.23;71.67;102885.16;5067470;28;19956;-70
2024/01/10 04:37:06;;;;;;;;;;;;;;;-7.20;72.39;102895.63;5050284;28;19940;-70
2024/01/10 04:39:32;;;;;;;;;;;;;;;-7.19;72.60;102897.44;5024848;28;19929;-70
2024/01/10 04:41:57;;;;;;;;;;;;;;;-7.22;72.38;102906.47;5066703;28;20387;-70
2024/01/10 04:44:23;;;;;;;;;;;;;;;-7.25;72.15;102896.00;5067433;28;19971;-70
2024/01/10 04:46:48;;;;;;;;;;;;;;;-7.26;72.42;102900.19;5067643;28;19932;-70
2024/01/10 04:49:13;;;;;;;;;;;;;;;-7.33;72.70;102893.59;5050566;28;19924;-70
2024/01/10 04:51:39;;;;;;;;;;;;;;;-7.34;73.14;102914.75;5066630;28;20311;-70
2024/01/10 04:54:04;;;;;;;;;;;;;;;-7.38;73.59;102910.13;5019968;28;19983;-70
2024/01/10 04:56:29;;;;;;;;;;;;;;;-7.34;73.13;102906.19;5050069;28;19960;-70
2024/01/10 04:58:57;;;;;;;;;;;;;;;-7.45;73.38;102889.91;5067269;28;19937;-69
2024/01/10 05:01:23;;;;;;;;;;;;;;;-7.48;73.26;102897.28;5067077;28;19924;-70
2024/01/10 05:03:51;;;;;;;;;;;;;;;-7.53;73.30;102894.31;5066927;28;20380;-70
2024/01/10 05:06:16;;;;;;;;;;;;;;;-7.53;73.20;102893.38;5015407;28;19932;-70
2024/01/10 05:08:41;;;;;;;;;;;;;;;-7.51;73.45;102891.91;5050536;28;19916;-70
2024/01/10 05:11:06;;;;;;;;;;;;;;;-7.54;73.27;102891.59;5066314;28;20303;-70
2024/01/10 05:13:32;;;;;;;;;;;;;;;-7.53;73.51;102894.31;5067465;28;19932;-70
2024/01/10 05:15:58;;;;;;;;;;;;;;;-7.50;73.52;102889.50;5064727;28;19948;-70
2024/01/10 05:18:23;;;;;;;;;;;;;;;-7.50;73.98;102888.56;5066964;28;19925;-70
2024/01/10 05:20:48;;;;;;;;;;;;;;;-7.47;73.54;102887.97;5058801;28;19929;-70
2024/01/10 05:23:14;;;;;;;;;;;;;;;-7.49;74.22;102887.84;5049336;28;20317;-70
2024/01/10 05:25:42;;;;;;;;;;;;;;;-7.48;73.79;102889.63;5048820;28;19916;-70
2024/01/10 05:28:07;;;;;;;;;;;;;;;-7.50;73.80;102897.13;5065974;28;19925;-70
2024/01/10 05:30:33;;;;;;;;;;;;;;;-7.49;74.19;102891.25;5036441;28;19974;-70
2024/01/10 05:33:01;;;;;;;;;;;;;;;-7.49;73.80;102885.28;5052771;28;19921;-70
2024/01/10 05:35:26;;;;;;;;;;;;;;;-7.52;74.31;102885.00;5063222;28;20552;-70
2024/01/10 05:37:52;;;;;;;;;;;;;;;-7.53;73.93;102890.84;5031365;28;19924;-70
2024/01/10 05:40:18;;;;;;;;;;;;;;;-7.52;74.12;102890.09;5068736;28;19931;-70
2024/01/10 05:42:44;;;;;;;;;;;;;;;-7.57;74.16;102891.28;5037111;28;20386;-70
2024/01/10 05:45:09;;;;;;;;;;;;;;;-7.56;74.39;102891.44;5024139;28;19967;-70
2024/01/10 05:47:36;;;;;;;;;;;;;;;-7.64;74.43;102883.81;5049730;28;19917;-70
2024/01/10 05:50:04;;;;;;;;;;;;;;;-7.69;74.24;102886.84;5032949;28;19984;-70
2024/01/10 05:52:29;;;;;;;;;;;;;;;-7.69;75.00;102888.50;5049114;28;20422;-70
2024/01/10 05:54:55;;;;;;;;;;;;;;;-7.71;75.07;102893.44;5030231;28;19925;-70
2024/01/10 05:57:21;;;;;;;;;;;;;;;-7.73;75.63;102894.97;5048564;28;19931;-73
2024/01/10 05:59:46;;;;;;;;;;;;;;;-7.73;75.22;102892.41;5016543;28;19921;-72
2024/01/10 06:02:11;;;;;;;;;;;;;;;-7.72;75.39;102904.38;5008615;28;20281;-72
2024/01/10 06:04:37;;;;;;;;;;;;;;;-7.74;75.02;102895.69;5009660;28;20064;-72
2024/01/10 06:07:03;;;;;;;;;;;;;;;-7.74;75.74;102887.16;5028127;28;19925;-72
2024/01/10 06:09:29;;;;;;;;;;;;;;;-7.75;75.11;102895.56;5051989;28;20482;-72
2024/01/10 06:11:55;;;;;;;;;;;;;;;-7.82;75.46;102896.59;5049420;28;20024;-72
2024/01/10 06:14:20;;;;;;;;;;;;;;;-7.85;75.22;102883.59;5049557;28;19952;-72
2024/01/10 06:16:46;;;;;;;;;;;;;;;-7.78;75.57;102891.06;5049029;28;19917;-72
2024/01/10 06:19:11;;;;;;;;;;;;;;;-7.79;75.39;102889.25;5017155;28;19929;-72
2024/01/10 06:21:37;;;;;;;;;;;;;;;-7.86;75.70;102877.63;5048765;28;20387;-72
2024/01/10 06:24:02;;;;;;;;;;;;;;;-7.86;75.49;102876.69;5011184;28;19925;-73
2024/01/10 06:26:28;;;;;;;;;;;;;;;-7.84;76.46;102881.19;5048417;28;20082;-72
2024/01/10 06:28:53;;;;;;;;;;;;;;;-7.91;75.92;102883.00;5048286;28;19924;-72
2024/01/10 06:31:18;;;;;;;;;;;;;;;-7.89;76.09;102886.59;5007196;28;20287;-72
2024/01/10 06:33:45;;;;;;;;;;;;;;;-7.96;75.79;102869.81;5007091;28;19921;-70
2024/01/10 06:36:10;;;;;;;;;;;;;;;-7.94;76.40;102868.34;4996707;28;19925;-72
2024/01/10 06:38:35;;;;;;;;;;;;;;;-8.01;76.65;102877.03;5042477;28;19969;-72
2024/01/10 06:41:01;;;;;;;;;;;;;;;-7.97;76.67;102882.41;5022722;28;19921;-71
2024/01/10 06:43:26;;;;;;;;;;;;;;;-8.03;76.54;102881.09;5030217;28;19929;-73
2024/01/10 06:45:52;;;;;;;;;;;;;;;-8.06;76.84;102878.25;5061076;28;19925;-72
2024/01/10 06:48:18;;;;;;;;;;;;;;;-8.07;76.90;102876.44;5051710;28;19927;-71
2024/01/10 06:50:44;;;;;;;;;;;;;;;-8.06;76.53;102885.88;5066226;28;19924;-72
2024/01/10 06:53:10;;;;;;;;;;;;;;;-8.08;77.44;102889.03;5034699;28;20107;-72
2024/01/10 06:55:36;;;;;;;;;;;;;;;-8.07;77.09;102883.19;5049822;28;20373;-72
2024/01/10 06:58:01;;;;;;;;;;;;;;;-8.10;76.43;102883.78;5067689;28;19948;-72
2024/01/10 07:00:26;;;;;;;;;;;;;;;-8.13;76.90;102885.13;5026603;28;19925;-72
2024/01/10 07:02:52;;;;;;;;;;;;;;;-8.18;77.19;102883.03;5034890;28;19921;-72
2024/01/10 07:05:17;;;;;;;;;;;;;;;-8.15;77.23;102884.97;5068338;28;19983;-73
2024/01/10 07:07:43;;;;;;;;;;;;;;;-8.09;76.97;102890.66;5035115;28;20339;-72
2024/01/10 07:10:08;;;;;;;;;;;;;;;-8.09;77.08;102883.00;5012440;28;19921;-71
2024/01/10 07:12:35;;;;;;;;;;;;;;;-8.12;77.56;102887.81;5022639;28;20434;-71
2024/01/10 07:15:02;;;;;;;;;;;;;;;-8.15;77.27;102895.16;5033585;28;19971;-71
2024/01/10 07:17:28;;;;;;;;;;;;;;;-8.17;77.52;102899.22;5034618;28;19916;-71
2024/01/10 07:19:53;;;;;;;;;;;;;;;-8.18;77.58;102897.41;5034532;28;19921;-71
2024/01/10 07:22:19;;;;;;;;;;;;;;;-8.20;77.77;102896.38;5017366;28;19963;-71
2024/01/10 07:24:46;;;;;;;;;;;;;;;-8.22;77.90;102898.72;5017775;28;19920;-72
2024/01/10 07:27:12;;;;;;;;;;;;;;;-8.20;77.95;102906.53;5024410;28;19923;-71
2024/01/10 07:29:37;;;;;;;;;;;;;;;-8.21;77.42;102897.09;5051066;28;19917;-71
2024/01/10 07:32:03;;;;;;;;;;;;;;;-8.23;77.79;102898.59;5034296;28;20070;-71
2024/01/10 07:34:28;;;;;;;;;;;;;;;-8.21;77.97;102892.03;5032562;28;19959;-71
2024/01/10 07:36:54;;;;;;;;;;;;;;;-8.18;77.48;102884.69;5067191;28;20012;-71
2024/01/10 07:39:19;;;;;;;;;;;;;;;-8.18;77.13;102884.69;5050293;28;19998;-71
2024/01/10 07:41:44;;;;;;;;;;;;;;;-8.17;77.41;102886.47;5081671;22;19928;-70
2024/01/10 07:44:10;;;;;;;;;;;;;;;-8.12;77.54;102887.81;5038533;28;19928;-71
2024/01/10 07:46:37;;;;;;;;;;;;;;;-8.07;77.49;102889.16;5067697;28;19930;-71
2024/01/10 07:49:03;;;;;;;;;;;;;;;-8.01;77.22;102882.13;5036364;28;19928;-71
2024/01/10 07:51:29;;;;;;;;;;;;;;;-7.99;77.78;102869.53;5069329;28;20363;-71
2024/01/10 07:53:54;;;;;;;;;;;;;;;-7.90;77.46;102872.97;5057443;28;19922;-71
2024/01/10 07:56:19;;;;;;;;;;;;;;;-7.91;78.15;102867.75;5072124;28;20113;-71
2024/01/10 07:58:45;;;;;;;;;;;;;;;-7.83;77.43;102866.81;5074211;28;19916;-74
2024/01/10 08:01:10;;;;;;;;;;;;;;;-7.84;77.47;102873.56;5044365;28;19928;-72
2024/01/10 08:03:36;;;;;;;;;;;;;;;-7.80;77.10;102882.41;5048396;28;19991;-71
2024/01/10 08:06:02;;;;;;;;;;;;;;;-7.73;76.92;102879.69;5038068;28;19921;-71
2024/01/10 08:08:27;;;;;;;;;;;;;;;-7.68;76.87;102878.44;5037529;28;19931;-70
2024/01/10 08:10:52;;;;;;;;;;;;;;;-7.59;76.66;102877.53;5036546;28;20329;-70
2024/01/10 08:13:18;;;;;;;;;;;;;;;-7.50;77.09;102878.38;5031561;28;19925;-72
2024/01/10 08:15:43;;;;;;;;;;;;;;;-7.51;76.56;102879.16;5032414;28;20027;-71
2024/01/10 08:18:09;;;;;;;;;;;;;;;-7.47;76.38;102880.34;5033948;28;20004;-71
2024/01/10 08:20:35;;;;;;;;;;;;;;;-7.41;76.66;102891.09;5033509;28;19935;-72
2024/01/10 08:23:00;;;;;;;;;;;;;;;-7.35;76.38;102899.34;5045891;28;19916;-72
2024/01/10 08:25:25;;;;;;;;;;;;;;;-7.30;75.84;102900.63;5053463;28;20253;-72
2024/01/10 08:27:53;;;;;;;;;;;;;;;-7.24;75.70;102895.22;5053559;28;19924;-72
2024/01/10 08:30:19;;;;;;;;;;;;;;;-7.20;75.83;102890.53;5054997;28;19927;-71
2024/01/10 08:32:44;;;;;;;;;;;;;;;-7.13;75.82;102890.38;5037276;28;19916;-72
2024/01/10 08:35:09;;;;;;;;;;;;;;;-6.98;75.27;102890.03;5054546;28;19955;-70
2024/01/10 08:37:35;;;;;;;;;;;;;;;-7.01;75.39;102889.72;5031703;28;19917;-72
2024/01/10 08:40:06;;;;;;;;;;;;;;;-6.88;75.44;102886.63;5032581;28;20019;-70
2024/01/10 08:42:32;;;;;;;;;;;;;;;-6.79;74.55;102890.94;5052615;28;19971;-70
2024/01/10 08:44:57;;;;;;;;;;;;;;;-6.78;75.11;102884.16;5030023;28;19964;-71
2024/01/10 08:47:23;;;;;;;;;;;;;;;-6.48;74.68;102882.63;5032562;28;19952;-72
2024/01/10 08:49:49;;;;;;;;;;;;;;;-4.97;71.68;102885.50;5037388;28;20375;-73
2024/01/10 08:52:14;;;;;;;;;;;;;;;-2.98;64.00;102872.28;5041650;28;20394;-72
2024/01/10 08:54:39;;;;;;;;;;;;;;;-1.05;59.80;102881.91;5052807;28;19955;-72
2024/01/10 08:57:04;;;;;;;;;;;;;;;0.35;54.54;102881.56;5052554;28;19973;-71
2024/01/10 08:59:30;;;;;;;;;;;;;;;1.08;51.30;102873.06;5041343;28;19934;-72
2024/01/10 09:01:55;;;;;;;;;;;;;;;1.66;50.38;102879.06;5034103;28;19979;-72
2024/01/10 09:04:21;;;;;;;;;;;;;;;2.05;49.94;102878.66;5052296;28;19927;-73
2024/01/10 09:06:47;;;;;;;;;;;;;;;0.78;51.27;102885.91;5058895;28;19916;-73
2024/01/10 09:09:15;;;;;;;;;;;;;;;-0.38;55.75;102887.22;5046939;28;19938;-73
2024/01/10 09:11:40;;;;;;;;;;;;;;;-1.20;59.06;102893.69;5039997;28;19920;-72
2024/01/10 09:14:06;;;;;;;;;;;;;;;-1.89;61.66;102892.28;5046812;28;19928;-74
2024/01/10 09:16:31;;;;;;;;;;;;;;;-2.40;62.78;102905.66;5059145;28;20360;-74
2024/01/10 09:18:57;;;;;;;;;;;;;;;-2.85;64.09;102894.63;5053937;28;19921;-75
2024/01/10 09:21:23;;;;;;;;;;;;;;;-3.23;64.94;102900.25;5052155;28;19916;-74
2024/01/10 09:23:50;;;;;;;;;;;;;;;-3.44;65.49;102907.19;5056790;28;19921;-71
2024/01/10 09:26:16;;;;;;;;;;;;;;;-3.57;66.98;102903.66;5036761;28;19921;-72
2024/01/10 09:28:41;;;;;;;;;;;;;;;-3.68;65.59;102901.91;5046727;28;19970;-72
2024/01/10 09:31:07;;;;;;;;;;;;;;;-3.70;66.10;102901.78;5071171;28;20023;-72
2024/01/10 09:33:32;;;;;;;;;;;;;;;-3.69;66.24;102903.59;5031342;28;19963;-73
2024/01/10 09:35:57;;;;;;;;;;;;;;;-3.72;66.87;102908.47;5027563;28;19921;-72
2024/01/10 09:38:23;;;;;;;;;;;;;;;-2.59;63.85;102905.97;5056061;28;19950;-72
2024/01/10 09:40:48;;;;;;;;;;;;;;;-0.56;58.13;102901.44;5037640;28;20337;-73
2024/01/10 09:43:14;;;;;;;;;;;;;;;1.09;53.76;102898.97;5039908;28;19932;-72
2024/01/10 09:45:46;;;;;;;;;;;;;;;2.52;50.20;102895.03;5032404;28;20364;-72
2024/01/10 09:48:13;;;;;;;;;;;;;;;3.54;46.86;102903.78;5055031;28;20409;-72
2024/01/10 09:50:38;;;;;;;;;;;;;;;4.27;45.75;102905.63;5073417;28;19924;-72
2024/01/10 09:53:07;;;;;;;;;;;;;;;5.24;45.67;102890.03;5029661;28;19920;-72
2024/01/10 09:55:35;;;;;;;;;;;;;;;6.17;42.55;102905.16;5038959;28;22125;-72
2024/01/10 09:58:03;;;;;;;;;;;;;;;6.12;38.80;102899.78;5055592;28;20019;-72
2024/01/10 10:00:29;;;;;;;;;;;;;;;6.17;41.07;102911.25;5054014;28;19928;-72
2024/01/10 10:02:56;;;;;;;;;;;;;;;6.57;42.77;102904.09;5039331;28;19916;-73
2024/01/10 10:05:21;;;;;;;;;;;;;;;7.26;40.08;102895.31;5054832;28;19923;-73
2024/01/10 10:07:48;;;;;;;;;;;;;;;7.54;40.78;102897.16;5065934;28;19917;-73
2024/01/10 10:10:15;;;;;;;;;;;;;;;7.41;39.55;102900.16;5039122;28;19917;-74
2024/01/10 10:12:43;;;;;;;;;;;;;;;7.16;40.06;102896.69;5055483;28;19920;-72
2024/01/10 10:15:13;;;;;;;;;;;;;;;7.49;40.49;102900.44;5055560;28;19981;-73
2024/01/10 10:17:45;;;;;;;;;;;;;;;7.69;36.29;102901.09;5039477;28;19932;-72
2024/01/10 10:20:11;;;;;;;;;;;;;;;8.09;39.14;102898.03;5029130;28;19947;-73
2024/01/10 10:22:37;;;;;;;;;;;;;;;8.32;39.89;102896.16;5037177;28;19925;-73
2024/01/10 10:25:02;;;;;;;;;;;;;;;9.07;40.56;102885.25;5038953;28;20437;-73
2024/01/10 10:27:29;;;;;;;;;;;;;;;9.80;39.72;102888.00;5055351;28;19920;-73
2024/01/10 10:29:54;;;;;;;;;;;;;;;9.20;38.75;102884.72;5035938;28;19920;-72
2024/01/10 10:32:21;;;;;;;;;;;;;;;8.87;38.45;102887.31;5032429;28;20271;-73
2024/01/10 10:34:47;;;;;;;;;;;;;;;9.43;39.09;102881.84;5035810;28;20322;-73
2024/01/10 10:37:12;;;;;;;;;;;;;;;10.22;38.16;102875.00;5035884;28;19916;-73
2024/01/10 10:39:38;;;;;;;;;;;;;;;10.69;37.30;102869.03;5035264;28;19977;-73
2024/01/10 10:42:03;;;;;;;;;;;;;;;11.11;37.25;102871.59;5035220;28;19931;-73
2024/01/10 10:44:34;;;;;;;;;;;;;;;11.21;35.13;102868.28;5055565;28;19917;-73
2024/01/10 10:47:03;;;;;;;;;;;;;;;11.30;35.28;102878.03;5055628;28;19912;-74
2024/01/10 10:49:31;;;;;;;;;;;;;;;11.26;35.57;102877.09;5073351;28;19920;-74
2024/01/10 10:52:00;;;;;;;;;;;;;;;11.30;36.07;102876.28;5054228;28;19919;-74
2024/01/10 10:54:29;;;;;;;;;;;;;;;11.66;35.86;102874.28;5055499;28;20391;-74
2024/01/10 10:56:55;;;;;;;;;;;;;;;11.72;37.33;102877.00;5054601;28;20352;-73
2024/01/10 10:59:22;;;;;;;;;;;;;;;11.70;35.90;102874.34;5055490;28;19924;-73
2024/01/10 11:01:47;;;;;;;;;;;;;;;11.98;35.36;102869.53;5055056;28;19916;-76
2024/01/10 11:04:16;;;;;;;;;;;;;;;11.56;33.18;102875.88;5051749;28;19916;-75
2024/01/10 11:06:42;;;;;;;;;;;;;;;12.24;36.70;102866.41;5035048;28;19939;-76
2024/01/10 11:09:12;;;;;;;;;;;;;;;12.42;32.72;102861.41;5033294;28;19971;-77
2024/01/10 11:11:58;;;;;;;;;;;;;;;12.27;34.32;102863.84;5050754;28;19916;-77
2024/01/10 11:14:27;;;;;;;;;;;;;;;11.93;34.81;102872.09;5013374;28;19919;-77
2024/01/10 11:16:53;;;;;;;;;;;;;;;11.68;35.26;102865.56;5054419;28;19912;-76
2024/01/10 11:19:21;;;;;;;;;;;;;;;11.33;31.35;102863.22;5054559;28;20363;-76
2024/01/10 11:21:47;;;;;;;;;;;;;;;11.09;35.32;102854.06;5053929;28;19917;-77
2024/01/10 11:24:13;;;;;;;;;;;;;;;11.36;33.38;102855.38;5054959;28;19923;-77
2024/01/10 11:26:38;;;;;;;;;;;;;;;11.38;32.86;102852.81;5052472;28;20027;-76
2024/01/10 11:29:04;;;;;;;;;;;;;;;11.72;34.48;102851.63;5053558;28;20412;-79
2024/01/10 11:31:30;;;;;;;;;;;;;;;11.81;30.11;102850.88;5054029;28;19920;-77
2024/01/10 11:34:00;;;;;;;;;;;;;;;11.75;34.86;102850.78;5064025;28;19982;-78
2024/01/10 11:36:26;;;;;;;;;;;;;;;11.79;34.35;102848.25;5053630;28;19920;-78
2024/01/10 11:38:53;;;;;;;;;;;;;;;11.38;33.39;102852.81;5032143;28;19921;-77
2024/01/10 11:41:31;;;;;;;;;;;;;;;10.85;33.19;102848.38;5041709;28;19932;-78
2024/01/10 11:44:12;;;;;;;;;;;;;;;10.65;34.29;102846.22;5054360;28;19920;-79
2024/01/10 11:46:42;;;;;;;;;;;;;;;10.61;32.53;102844.38;5053772;28;19920;-78
2024/01/10 11:49:07;;;;;;;;;;;;;;;10.27;31.58;102835.81;5033731;28;19927;-78
2024/01/10 11:51:37;;;;;;;;;;;;;;;10.13;33.07;102839.84;5035746;28;19912;-76
2024/01/10 11:54:02;;;;;;;;;;;;;;;9.99;32.87;102845.66;5053550;28;19961;-78
2024/01/10 11:56:38;;;;;;;;;;;;;;;9.64;33.81;102844.81;5053030;28;19916;-80
2024/01/10 11:59:08;;;;;;;;;;;;;;;9.59;33.58;102842.09;5054690;28;20408;-76
2024/01/10 12:01:35;;;;;;;;;;;;;;;9.47;33.78;102831.34;5034405;28;19912;-78
2024/01/10 12:04:04;;;;;;;;;;;;;;;9.78;33.05;102832.94;5046692;28;19969;-78
2024/01/10 12:06:31;;;;;;;;;;;;;;;10.28;33.67;102836.69;5050759;28;19928;-78
2024/01/10 12:08:57;;;;;;;;;;;;;;;10.84;31.86;102829.09;5053936;28;19961;-78
2024/01/10 12:11:23;;;;;;;;;;;;;;;11.40;32.23;102833.59;5047216;28;19920;-78
2024/01/10 12:13:48;;;;;;;;;;;;;;;11.52;31.17;102826.78;5056705;28;19974;-79
2024/01/10 12:16:13;;;;;;;;;;;;;;;11.44;32.29;102832.78;5032956;28;19931;-77
2024/01/10 12:18:39;;;;;;;;;;;;;;;11.40;30.41;102825.72;5032936;28;19921;-73
2024/01/10 12:21:05;;;;;;;;;;;;;;;11.37;32.09;102830.06;5051490;28;20257;-73
2024/01/10 12:23:31;;;;;;;;;;;;;;;11.54;31.48;102822.44;5066635;28;20299;-76
2024/01/10 12:26:04;;;;;;;;;;;;;;;11.65;32.00;102817.34;5052978;28;19916;-77
2024/01/10 12:28:30;;;;;;;;;;;;;;;11.59;30.71;102816.41;5053997;28;20410;-73
2024/01/10 12:30:55;;;;;;;;;;;;;;;11.79;32.23;102811.47;5033494;28;20015;-76